createdAt,value
2019-01-29T00:00:37.578Z,0.00
2019-01-29T00:01:37.557Z,0.00
2019-01-29T00:02:37.767Z,0.00
2019-01-29T00:03:37.748Z,0.00
2019-01-29T00:04:37.549Z,0.00
2019-01-29T00:05:37.531Z,0.00
2019-01-29T00:06:37.526Z,0.00
2019-01-29T00:07:37.515Z,0.00
2019-01-29T00:08:37.514Z,0.00
2019-01-29T00:09:37.528Z,0.00
2019-01-29T00:10:37.499Z,0.00
2019-01-29T00:11:37.503Z,0.00
2019-01-29T00:12:37.543Z,0.00
2019-01-29T00:13:37.695Z,0.00
2019-01-29T00:14:37.472Z,0.00
2019-01-29T00:15:37.468Z,0.00
2019-01-29T00:16:37.460Z,0.00
2019-01-29T00:17:37.455Z,0.00
2019-01-29T00:18:37.458Z,0.00
2019-01-29T00:19:37.441Z,0.00
2019-01-29T00:20:37.433Z,0.00
2019-01-29T00:21:37.629Z,0.00
2019-01-29T00:22:37.622Z,0.00
2019-01-29T00:23:37.613Z,0.00
2019-01-29T00:24:37.408Z,0.00
2019-01-29T00:25:37.416Z,0.00
2019-01-29T00:26:37.397Z,0.00
2019-01-29T00:27:37.387Z,0.00
2019-01-29T00:28:37.391Z,0.00
2019-01-29T00:29:37.379Z,0.00
2019-01-29T00:30:37.581Z,0.00
2019-01-29T00:31:37.572Z,0.00
2019-01-29T00:32:37.352Z,0.00
2019-01-29T00:33:37.340Z,0.00
2019-01-29T00:34:37.333Z,0.00
2019-01-29T00:35:37.339Z,0.00
2019-01-29T00:36:37.342Z,0.00
2019-01-29T00:37:37.313Z,0.00
2019-01-29T00:38:37.312Z,0.00
2019-01-29T00:39:37.314Z,0.00
2019-01-29T00:40:37.299Z,0.00
2019-01-29T00:41:37.300Z,0.00
2019-01-29T00:42:37.301Z,0.00
2019-01-29T00:43:37.283Z,0.00
2019-01-29T00:44:37.491Z,0.00
2019-01-29T00:45:37.264Z,0.00
2019-01-29T00:46:37.265Z,0.00
2019-01-29T00:47:37.248Z,0.00
2019-01-29T00:48:37.255Z,0.00
2019-01-29T00:49:37.435Z,0.00
2019-01-29T00:50:37.228Z,0.00
2019-01-29T00:51:37.220Z,0.00
2019-01-29T00:52:41.983Z,0.00
2019-01-29T00:53:37.209Z,0.00
2019-01-29T00:54:37.217Z,0.00
2019-01-29T00:55:37.201Z,0.00
2019-01-29T00:56:37.213Z,0.00
2019-01-29T00:57:37.200Z,0.00
2019-01-29T00:58:37.178Z,0.00
2019-01-29T00:59:37.174Z,0.00
2019-01-29T01:00:37.368Z,0.00
2019-01-29T01:01:37.160Z,0.00
2019-01-29T01:02:37.163Z,0.00
2019-01-29T01:03:37.156Z,0.00
2019-01-29T01:04:37.162Z,0.00
2019-01-29T01:05:37.144Z,0.00
2019-01-29T01:06:37.128Z,0.00
2019-01-29T01:07:37.135Z,0.00
2019-01-29T01:08:38.442Z,0.00
2019-01-29T01:09:37.110Z,0.00
2019-01-29T01:10:37.111Z,0.00
2019-01-29T01:11:37.104Z,0.00
2019-01-29T01:12:37.081Z,0.00
2019-01-29T01:13:37.086Z,0.00
2019-01-29T01:14:37.084Z,0.00
2019-01-29T01:15:37.064Z,0.00
2019-01-29T01:16:37.086Z,0.00
2019-01-29T01:17:37.057Z,0.00
2019-01-29T01:18:37.053Z,0.00
2019-01-29T01:19:37.036Z,0.00
2019-01-29T01:20:37.249Z,0.00
2019-01-29T01:21:37.235Z,0.00
2019-01-29T01:22:37.250Z,0.00
2019-01-29T01:23:37.008Z,0.00
2019-01-29T01:24:37.222Z,0.00
2019-01-29T01:25:37.207Z,0.00
2019-01-29T01:26:36.998Z,0.00
2019-01-29T01:27:36.982Z,0.00
2019-01-29T01:28:37.200Z,0.00
2019-01-29T01:29:37.176Z,0.00
2019-01-29T01:30:37.001Z,0.00
2019-01-29T01:31:36.977Z,0.00
2019-01-29T01:32:36.970Z,0.00
2019-01-29T01:33:36.949Z,0.00
2019-01-29T01:34:37.137Z,0.00
2019-01-29T01:35:37.131Z,0.00
2019-01-29T01:36:36.929Z,0.00
2019-01-29T01:37:36.925Z,0.00
2019-01-29T01:38:36.937Z,0.00
2019-01-29T01:39:37.107Z,0.00
2019-01-29T01:40:36.900Z,0.00
2019-01-29T01:41:36.893Z,0.00
2019-01-29T01:42:36.885Z,0.00
2019-01-29T01:43:36.885Z,0.00
2019-01-29T01:44:36.876Z,0.00
2019-01-29T01:45:36.880Z,0.00
2019-01-29T01:46:36.872Z,0.00
2019-01-29T01:47:37.065Z,0.00
2019-01-29T01:48:36.848Z,0.00
2019-01-29T01:49:36.843Z,0.00
2019-01-29T01:50:36.847Z,0.00
2019-01-29T01:51:36.841Z,0.00
2019-01-29T01:52:36.826Z,0.00
2019-01-29T01:53:36.819Z,0.00
2019-01-29T01:54:36.813Z,0.00
2019-01-29T01:55:37.020Z,0.00
2019-01-29T01:56:36.826Z,0.00
2019-01-29T01:57:36.790Z,0.00
2019-01-29T01:58:36.795Z,0.00
2019-01-29T01:59:36.997Z,0.00
2019-01-29T02:00:36.786Z,0.00
2019-01-29T02:01:36.792Z,0.00
2019-01-29T02:02:36.781Z,0.00
2019-01-29T02:03:36.755Z,0.00
2019-01-29T02:04:36.758Z,0.00
2019-01-29T02:05:36.941Z,0.00
2019-01-29T02:06:36.737Z,0.00
2019-01-29T02:07:36.727Z,0.00
2019-01-29T02:08:36.738Z,0.00
2019-01-29T02:09:36.706Z,0.00
2019-01-29T02:10:36.719Z,0.00
2019-01-29T02:11:36.713Z,0.00
2019-01-29T02:12:36.704Z,0.00
2019-01-29T02:13:36.708Z,0.00
2019-01-29T02:14:36.694Z,0.00
2019-01-29T02:15:36.681Z,0.00
2019-01-29T02:16:36.669Z,0.00
2019-01-29T02:17:36.672Z,0.00
2019-01-29T02:18:36.668Z,0.00
2019-01-29T02:19:36.642Z,0.00
2019-01-29T02:20:36.640Z,0.00
2019-01-29T02:21:36.626Z,0.00
2019-01-29T02:22:36.625Z,0.00
2019-01-29T02:23:36.634Z,0.00
2019-01-29T02:24:36.612Z,0.00
2019-01-29T02:25:36.606Z,0.00
2019-01-29T02:26:36.816Z,0.00
2019-01-29T02:27:36.591Z,0.00
2019-01-29T02:28:36.600Z,0.00
2019-01-29T02:29:36.591Z,0.00
2019-01-29T02:30:36.776Z,0.00
2019-01-29T02:31:36.568Z,0.00
2019-01-29T02:32:36.563Z,0.00
2019-01-29T02:33:36.758Z,0.00
2019-01-29T02:34:36.554Z,0.00
2019-01-29T02:35:36.544Z,0.00
2019-01-29T02:36:36.540Z,0.00
2019-01-29T02:37:36.543Z,0.00
2019-01-29T02:38:36.516Z,0.00
2019-01-29T02:39:36.527Z,0.00
2019-01-29T02:40:36.503Z,0.00
2019-01-29T02:41:36.513Z,0.00
2019-01-29T02:42:36.501Z,0.00
2019-01-29T02:43:36.697Z,0.00
2019-01-29T02:44:37.163Z,0.00
2019-01-29T02:45:36.473Z,0.00
2019-01-29T02:46:36.666Z,0.00
2019-01-29T02:47:36.454Z,0.00
2019-01-29T02:48:36.474Z,0.00
2019-01-29T02:49:36.672Z,0.00
2019-01-29T02:50:36.439Z,0.00
2019-01-29T02:51:36.634Z,0.00
2019-01-29T02:52:36.441Z,0.00
2019-01-29T02:53:36.432Z,0.00
2019-01-29T02:54:36.614Z,0.00
2019-01-29T02:56:02.098Z,0.00
2019-01-29T02:56:36.433Z,0.00
2019-01-29T02:57:36.399Z,0.00
2019-01-29T02:58:36.396Z,0.00
2019-01-29T02:59:36.399Z,0.00
2019-01-29T03:00:36.388Z,0.00
2019-01-29T03:01:36.375Z,0.00
2019-01-29T03:02:36.421Z,0.00
2019-01-29T03:03:36.359Z,0.00
2019-01-29T03:04:36.354Z,0.00
2019-01-29T03:06:09.768Z,0.00
2019-01-29T03:06:36.354Z,0.00
2019-01-29T03:07:36.343Z,0.00
2019-01-29T03:09:09.545Z,0.00
2019-01-29T03:10:09.783Z,0.00
2019-01-29T03:12:20.273Z,0.00
2019-01-29T03:13:20.254Z,0.00
2019-01-29T03:14:53.504Z,0.00
2019-01-29T03:15:53.654Z,0.00
2019-01-29T03:16:53.661Z,0.00
2019-01-29T03:17:53.450Z,0.00
2019-01-29T03:18:20.218Z,0.00
2019-01-29T03:19:20.196Z,0.00
2019-01-29T03:20:20.206Z,0.00
2019-01-29T03:21:20.197Z,0.00
2019-01-29T03:22:20.177Z,0.00
2019-01-29T03:23:27.261Z,0.00
2019-01-29T03:24:20.162Z,0.00
2019-01-29T03:25:20.373Z,0.00
2019-01-29T03:26:20.151Z,0.00
2019-01-29T03:27:20.345Z,0.00
2019-01-29T03:28:20.154Z,0.00
2019-01-29T03:29:20.131Z,0.00
2019-01-29T03:30:20.145Z,0.00
2019-01-29T03:31:20.116Z,0.00
2019-01-29T03:32:20.162Z,0.00
2019-01-29T03:33:20.133Z,0.00
2019-01-29T03:34:20.110Z,0.00
2019-01-29T03:35:20.091Z,0.00
2019-01-29T03:36:20.299Z,0.00
2019-01-29T03:37:20.078Z,0.00
2019-01-29T03:38:20.077Z,0.00
2019-01-29T03:39:20.084Z,0.00
2019-01-29T03:40:20.061Z,0.00
2019-01-29T03:41:20.070Z,0.00
2019-01-29T03:42:20.246Z,0.00
2019-01-29T03:43:20.049Z,0.00
2019-01-29T03:44:20.028Z,0.00
2019-01-29T03:45:20.069Z,0.00
2019-01-29T03:46:20.026Z,0.00
2019-01-29T03:47:20.210Z,0.00
2019-01-29T03:48:20.002Z,0.00
2019-01-29T03:49:20.214Z,0.00
2019-01-29T03:50:19.993Z,0.00
2019-01-29T03:51:19.981Z,0.00
2019-01-29T03:52:19.975Z,0.00
2019-01-29T03:53:19.982Z,0.00
2019-01-29T03:54:19.978Z,0.00
2019-01-29T03:55:19.981Z,0.00
2019-01-29T03:56:19.979Z,0.00
2019-01-29T03:57:19.944Z,0.00
2019-01-29T03:58:19.948Z,0.00
2019-01-29T03:59:19.928Z,0.00
2019-01-29T04:00:19.934Z,0.00
2019-01-29T04:01:19.928Z,0.00
2019-01-29T04:02:19.920Z,0.00
2019-01-29T04:03:19.903Z,0.00
2019-01-29T04:04:19.926Z,0.00
2019-01-29T04:05:19.891Z,0.00
2019-01-29T04:06:19.897Z,0.00
2019-01-29T04:07:19.874Z,0.00
2019-01-29T04:08:20.073Z,0.00
2019-01-29T04:09:19.863Z,0.00
2019-01-29T04:10:19.870Z,0.00
2019-01-29T04:11:19.851Z,0.00
2019-01-29T04:12:19.844Z,0.00
2019-01-29T04:13:19.853Z,0.00
2019-01-29T04:14:19.842Z,0.00
2019-01-29T04:15:19.823Z,0.00
2019-01-29T04:16:20.018Z,0.00
2019-01-29T04:17:19.812Z,0.00
2019-01-29T04:18:19.805Z,0.00
2019-01-29T04:19:19.810Z,0.00
2019-01-29T04:20:19.794Z,0.00
2019-01-29T04:21:19.796Z,0.00
2019-01-29T04:22:19.778Z,0.00
2019-01-29T04:23:19.781Z,0.00
2019-01-29T04:24:19.767Z,0.00
2019-01-29T04:25:19.759Z,0.00
2019-01-29T04:26:19.786Z,0.00
2019-01-29T04:27:19.747Z,0.00
2019-01-29T04:28:19.761Z,0.00
2019-01-29T04:29:19.746Z,0.00
2019-01-29T04:30:19.738Z,0.00
2019-01-29T04:31:19.739Z,0.00
2019-01-29T04:32:19.915Z,0.00
2019-01-29T04:33:19.718Z,0.00
2019-01-29T04:34:19.717Z,0.00
2019-01-29T04:35:19.905Z,0.00
2019-01-29T04:36:19.691Z,0.00
2019-01-29T04:37:19.703Z,0.00
2019-01-29T04:38:19.691Z,0.00
2019-01-29T04:39:19.877Z,0.00
2019-01-29T04:40:19.887Z,0.00
2019-01-29T04:41:19.665Z,0.00
2019-01-29T04:42:19.851Z,0.00
2019-01-29T04:43:19.641Z,0.00
2019-01-29T04:44:19.838Z,0.00
2019-01-29T04:45:19.628Z,0.00
2019-01-29T04:46:19.622Z,0.00
2019-01-29T04:47:19.626Z,0.00
2019-01-29T04:48:19.618Z,0.00
2019-01-29T04:49:19.620Z,0.00
2019-01-29T04:50:19.597Z,0.00
2019-01-29T04:51:19.600Z,0.00
2019-01-29T04:52:19.605Z,0.00
2019-01-29T04:53:19.780Z,0.00
2019-01-29T04:54:19.570Z,0.00
2019-01-29T04:55:19.586Z,0.00
2019-01-29T04:56:19.777Z,0.00
2019-01-29T04:57:19.551Z,0.00
2019-01-29T04:58:19.546Z,0.00
2019-01-29T04:59:19.539Z,0.00
2019-01-29T05:00:19.547Z,0.00
2019-01-29T05:01:19.527Z,0.00
2019-01-29T05:02:19.536Z,0.00
2019-01-29T05:03:19.527Z,0.00
2019-01-29T05:04:19.518Z,0.00
2019-01-29T05:05:19.505Z,0.00
2019-01-29T05:06:19.493Z,0.00
2019-01-29T05:07:19.486Z,0.00
2019-01-29T05:08:19.492Z,0.00
2019-01-29T05:09:19.485Z,0.00
2019-01-29T05:10:19.510Z,0.00
2019-01-29T05:11:19.459Z,0.00
2019-01-29T05:12:19.516Z,0.00
2019-01-29T05:13:19.674Z,0.00
2019-01-29T05:14:19.647Z,0.00
2019-01-29T05:15:19.603Z,0.00
2019-01-29T05:16:19.645Z,0.00
2019-01-29T05:17:19.426Z,0.00
2019-01-29T05:18:19.433Z,0.00
2019-01-29T05:19:19.417Z,0.00
2019-01-29T05:20:19.452Z,0.00
2019-01-29T05:21:19.423Z,0.00
2019-01-29T05:22:19.396Z,0.00
2019-01-29T05:23:19.386Z,0.00
2019-01-29T05:24:19.390Z,0.00
2019-01-29T05:25:19.383Z,0.00
2019-01-29T05:26:19.379Z,0.00
2019-01-29T05:27:19.394Z,0.00
2019-01-29T05:28:19.373Z,0.00
2019-01-29T05:29:19.350Z,0.00
2019-01-29T05:30:20.752Z,0.00
2019-01-29T05:31:19.538Z,0.00
2019-01-29T05:32:19.332Z,0.00
2019-01-29T05:33:19.326Z,0.00
2019-01-29T05:34:19.327Z,0.00
2019-01-29T05:35:19.313Z,0.00
2019-01-29T05:36:19.307Z,0.00
2019-01-29T05:37:19.300Z,0.00
2019-01-29T05:38:19.311Z,0.00
2019-01-29T05:39:19.314Z,0.00
2019-01-29T05:40:19.297Z,0.00
2019-01-29T05:41:19.285Z,0.00
2019-01-29T05:42:19.282Z,0.00
2019-01-29T05:43:19.271Z,0.00
2019-01-29T05:44:19.470Z,0.00
2019-01-29T05:45:19.250Z,0.00
2019-01-29T05:46:19.243Z,0.00
2019-01-29T05:47:19.241Z,0.00
2019-01-29T05:48:19.234Z,0.00
2019-01-29T05:49:19.223Z,0.00
2019-01-29T05:50:19.218Z,0.00
2019-01-29T05:51:19.207Z,0.00
2019-01-29T05:52:19.212Z,0.00
2019-01-29T05:53:19.199Z,0.00
2019-01-29T05:54:19.192Z,0.00
2019-01-29T05:55:19.191Z,0.00
2019-01-29T05:56:19.176Z,0.00
2019-01-29T05:57:19.170Z,0.00
2019-01-29T05:58:19.163Z,0.00
2019-01-29T05:59:19.157Z,0.00
2019-01-29T06:00:19.164Z,0.00
2019-01-29T06:01:19.148Z,0.00
2019-01-29T06:02:19.150Z,0.00
2019-01-29T06:03:19.132Z,0.00
2019-01-29T06:04:19.125Z,0.00
2019-01-29T06:05:19.126Z,0.00
2019-01-29T06:06:19.114Z,0.00
2019-01-29T06:07:19.115Z,0.00
2019-01-29T06:08:19.097Z,0.00
2019-01-29T06:09:19.093Z,0.00
2019-01-29T06:10:19.086Z,0.00
2019-01-29T06:11:19.099Z,0.00
2019-01-29T06:12:19.277Z,0.00
2019-01-29T06:13:19.268Z,0.00
2019-01-29T06:14:19.265Z,0.00
2019-01-29T06:15:19.058Z,0.00
2019-01-29T06:16:19.251Z,0.00
2019-01-29T06:17:27.207Z,0.00
2019-01-29T06:18:19.040Z,0.00
2019-01-29T06:19:19.040Z,0.00
2019-01-29T06:20:19.072Z,0.00
2019-01-29T06:21:19.230Z,0.00
2019-01-29T06:22:19.288Z,0.00
2019-01-29T06:23:19.235Z,0.00
2019-01-29T06:24:25.478Z,0.00
2019-01-29T06:25:19.027Z,0.00
2019-01-29T06:26:19.002Z,0.00
2019-01-29T06:27:19.182Z,0.00
2019-01-29T06:28:18.981Z,0.00
2019-01-29T06:29:18.979Z,0.00
2019-01-29T06:30:18.974Z,0.00
2019-01-29T06:31:19.006Z,0.00
2019-01-29T06:32:19.247Z,0.00
2019-01-29T06:33:18.941Z,0.00
2019-01-29T06:34:18.960Z,0.00
2019-01-29T06:35:18.928Z,0.00
2019-01-29T06:36:18.933Z,0.00
2019-01-29T06:37:18.919Z,0.00
2019-01-29T06:38:19.112Z,0.00
2019-01-29T06:39:18.951Z,0.00
2019-01-29T06:40:18.898Z,0.00
2019-01-29T06:41:19.098Z,0.00
2019-01-29T06:42:19.093Z,0.00
2019-01-29T06:43:18.881Z,0.00
2019-01-29T06:44:19.079Z,0.00
2019-01-29T06:45:18.876Z,0.00
2019-01-29T06:46:18.862Z,0.00
2019-01-29T06:47:18.858Z,0.00
2019-01-29T06:48:19.049Z,0.00
2019-01-29T06:49:18.858Z,0.00
2019-01-29T06:50:18.835Z,0.00
2019-01-29T06:51:18.853Z,0.00
2019-01-29T06:52:18.827Z,0.00
2019-01-29T06:53:19.022Z,0.00
2019-01-29T06:54:18.812Z,0.00
2019-01-29T06:55:18.812Z,4.00
2019-01-29T06:56:19.108Z,0.00
2019-01-29T06:57:18.797Z,0.00
2019-01-29T06:58:18.787Z,4.00
2019-01-29T06:59:18.794Z,4.00
2019-01-29T07:00:18.794Z,4.00
2019-01-29T07:01:18.774Z,4.00
2019-01-29T07:02:18.968Z,4.00
2019-01-29T07:03:18.771Z,4.00
2019-01-29T07:04:18.762Z,4.00
2019-01-29T07:05:18.743Z,4.00
2019-01-29T07:06:18.748Z,4.00
2019-01-29T07:07:18.934Z,4.00
2019-01-29T07:08:18.727Z,4.00
2019-01-29T07:09:18.718Z,4.00
2019-01-29T07:10:18.735Z,8.00
2019-01-29T07:11:18.705Z,8.00
2019-01-29T07:12:18.902Z,12.00
2019-01-29T07:13:18.897Z,8.00
2019-01-29T07:14:18.691Z,12.00
2019-01-29T07:15:18.683Z,16.00
2019-01-29T07:16:18.677Z,12.00
2019-01-29T07:17:18.672Z,16.00
2019-01-29T07:18:18.675Z,16.00
2019-01-29T07:19:18.669Z,12.00
2019-01-29T07:20:18.655Z,16.00
2019-01-29T07:21:18.643Z,20.00
2019-01-29T07:22:18.657Z,24.00
2019-01-29T07:23:18.671Z,28.00
2019-01-29T07:24:18.641Z,24.00
2019-01-29T07:25:18.636Z,28.00
2019-01-29T07:26:18.643Z,32.00
2019-01-29T07:27:18.838Z,32.00
2019-01-29T07:28:18.631Z,36.00
2019-01-29T07:29:18.795Z,44.00
2019-01-29T07:30:18.591Z,48.00
2019-01-29T07:31:18.590Z,56.00
2019-01-29T07:32:18.575Z,60.00
2019-01-29T07:33:18.769Z,60.00
2019-01-29T07:34:18.563Z,64.00
2019-01-29T07:35:18.553Z,64.00
2019-01-29T07:36:18.548Z,72.00
2019-01-29T07:37:22.058Z,72.00
2019-01-29T07:38:18.538Z,76.00
2019-01-29T07:39:18.530Z,84.00
2019-01-29T07:40:18.522Z,84.00
2019-01-29T07:41:18.521Z,92.00
2019-01-29T07:42:18.511Z,96.00
2019-01-29T07:43:18.501Z,96.00
2019-01-29T07:44:18.711Z,104.00
2019-01-29T07:45:18.491Z,104.00
2019-01-29T07:46:18.484Z,108.00
2019-01-29T07:47:18.477Z,112.00
2019-01-29T07:48:18.471Z,112.00
2019-01-29T07:49:18.467Z,116.00
2019-01-29T07:50:18.460Z,128.00
2019-01-29T07:51:18.669Z,124.00
2019-01-29T07:52:18.447Z,128.00
2019-01-29T07:53:18.446Z,144.00
2019-01-29T07:54:18.433Z,136.00
2019-01-29T07:55:18.426Z,144.00
2019-01-29T07:56:18.419Z,148.00
2019-01-29T07:57:18.416Z,172.00
2019-01-29T07:58:18.406Z,164.00
2019-01-29T07:59:32.532Z,204.00
2019-01-29T08:00:18.392Z,180.00
2019-01-29T08:01:18.600Z,164.00
2019-01-29T08:02:18.400Z,152.00
2019-01-29T08:03:18.576Z,180.00
2019-01-29T08:04:18.366Z,200.00
2019-01-29T08:05:18.376Z,192.00
2019-01-29T08:06:18.367Z,240.00
2019-01-29T08:07:18.350Z,240.00
2019-01-29T08:08:18.544Z,304.00
2019-01-29T08:09:18.335Z,280.00
2019-01-29T08:10:18.346Z,324.00
2019-01-29T08:11:18.324Z,264.00
2019-01-29T08:12:18.319Z,236.00
2019-01-29T08:13:18.309Z,200.00
2019-01-29T08:14:18.517Z,180.00
2019-01-29T08:15:18.297Z,176.00
2019-01-29T08:16:18.303Z,172.00
2019-01-29T08:17:18.288Z,168.00
2019-01-29T08:18:18.341Z,180.00
2019-01-29T08:19:18.287Z,204.00
2019-01-29T08:20:18.269Z,200.00
2019-01-29T08:21:18.276Z,188.00
2019-01-29T08:22:18.468Z,192.00
2019-01-29T08:23:18.248Z,172.00
2019-01-29T08:24:18.447Z,168.00
2019-01-29T08:25:18.448Z,196.00
2019-01-29T08:26:18.243Z,200.00
2019-01-29T08:27:18.235Z,180.00
2019-01-29T08:28:18.231Z,192.00
2019-01-29T08:29:18.425Z,212.00
2019-01-29T08:30:18.420Z,208.00
2019-01-29T08:31:18.213Z,200.00
2019-01-29T08:32:18.199Z,208.00
2019-01-29T08:33:18.187Z,276.00
2019-01-29T08:34:18.421Z,284.00
2019-01-29T08:35:18.192Z,312.00
2019-01-29T08:36:18.167Z,304.00
2019-01-29T08:37:18.162Z,272.00
2019-01-29T08:38:18.158Z,240.00
2019-01-29T08:39:18.149Z,232.00
2019-01-29T08:40:18.358Z,288.00
2019-01-29T08:41:18.140Z,336.00
2019-01-29T08:42:18.134Z,324.00
2019-01-29T08:43:18.141Z,332.00
2019-01-29T08:44:18.124Z,408.00
2019-01-29T08:45:18.136Z,500.00
2019-01-29T08:46:18.124Z,504.00
2019-01-29T08:47:18.111Z,420.00
2019-01-29T08:48:18.313Z,468.00
2019-01-29T08:49:18.292Z,564.00
2019-01-29T08:50:18.097Z,576.00
2019-01-29T08:51:18.292Z,600.00
2019-01-29T08:52:18.075Z,576.00
2019-01-29T08:53:18.081Z,524.00
2019-01-29T08:54:18.060Z,536.00
2019-01-29T08:55:18.067Z,560.00
2019-01-29T08:56:18.049Z,580.00
2019-01-29T08:57:18.057Z,584.00
2019-01-29T08:58:18.038Z,624.00
2019-01-29T08:59:18.034Z,680.00
2019-01-29T09:00:18.027Z,836.00
2019-01-29T09:01:18.020Z,840.00
2019-01-29T09:02:18.015Z,744.00
2019-01-29T09:03:18.031Z,692.00
2019-01-29T09:04:18.000Z,668.00
2019-01-29T09:05:17.994Z,644.00
2019-01-29T09:06:18.009Z,664.00
2019-01-29T09:07:17.993Z,788.00
2019-01-29T09:08:17.978Z,892.00
2019-01-29T09:09:18.185Z,864.00
2019-01-29T09:10:17.970Z,852.00
2019-01-29T09:11:17.959Z,696.00
2019-01-29T09:12:17.954Z,584.00
2019-01-29T09:13:17.950Z,532.00
2019-01-29T09:14:17.984Z,544.00
2019-01-29T09:15:17.948Z,548.00
2019-01-29T09:16:17.945Z,564.00
2019-01-29T09:17:17.939Z,676.00
2019-01-29T09:18:17.942Z,728.00
2019-01-29T09:19:17.914Z,780.00
2019-01-29T09:20:17.937Z,812.00
2019-01-29T09:21:17.902Z,784.00
2019-01-29T09:22:17.920Z,828.00
2019-01-29T09:23:17.902Z,904.00
2019-01-29T09:24:17.886Z,856.00
2019-01-29T09:25:20.893Z,908.00
2019-01-29T09:26:17.886Z,952.00
2019-01-29T09:27:17.868Z,980.00
2019-01-29T09:28:18.617Z,972.00
2019-01-29T09:29:18.027Z,964.00
2019-01-29T09:30:17.882Z,908.00
2019-01-29T09:31:18.062Z,832.00
2019-01-29T09:32:17.866Z,764.00
2019-01-29T09:33:17.850Z,732.00
2019-01-29T09:34:18.054Z,744.00
2019-01-29T09:35:17.840Z,820.00
2019-01-29T09:36:17.841Z,960.00
2019-01-29T09:37:17.827Z,1000.00
2019-01-29T09:38:18.024Z,1004.00
2019-01-29T09:39:17.811Z,1000.00
2019-01-29T09:40:17.811Z,1008.00
2019-01-29T09:41:17.793Z,980.00
2019-01-29T09:42:17.808Z,940.00
2019-01-29T09:43:17.802Z,944.00
2019-01-29T09:44:17.773Z,964.00
2019-01-29T09:45:17.786Z,984.00
2019-01-29T09:46:17.976Z,876.00
2019-01-29T09:47:17.767Z,756.00
2019-01-29T09:48:17.752Z,676.00
2019-01-29T09:49:17.752Z,620.00
2019-01-29T09:50:17.739Z,604.00
2019-01-29T09:51:17.951Z,572.00
2019-01-29T09:52:17.932Z,528.00
2019-01-29T09:53:17.938Z,508.00
2019-01-29T09:54:17.921Z,504.00
2019-01-29T09:55:17.724Z,532.00
2019-01-29T09:56:17.925Z,556.00
2019-01-29T09:57:17.722Z,564.00
2019-01-29T09:58:17.704Z,560.00
2019-01-29T09:59:17.910Z,548.00
2019-01-29T10:00:17.690Z,544.00
2019-01-29T10:01:17.692Z,548.00
2019-01-29T10:02:17.672Z,556.00
2019-01-29T10:03:17.666Z,564.00
2019-01-29T10:04:17.690Z,560.00
2019-01-29T10:05:17.656Z,560.00
2019-01-29T10:06:17.722Z,576.00
2019-01-29T10:07:17.651Z,596.00
2019-01-29T10:08:17.669Z,644.00
2019-01-29T10:09:17.636Z,712.00
2019-01-29T10:10:17.632Z,780.00
2019-01-29T10:11:17.623Z,932.00
2019-01-29T10:12:17.619Z,1100.00
2019-01-29T10:13:17.611Z,1216.00
2019-01-29T10:14:17.622Z,1296.00
2019-01-29T10:15:17.615Z,1376.00
2019-01-29T10:16:17.606Z,1428.00
2019-01-29T10:17:17.604Z,1564.00
2019-01-29T10:18:17.588Z,1484.00
2019-01-29T10:19:17.578Z,1448.00
2019-01-29T10:20:17.582Z,1420.00
2019-01-29T10:21:17.580Z,1400.00
2019-01-29T10:22:17.588Z,1464.00
2019-01-29T10:23:17.777Z,1416.00
2019-01-29T10:24:17.563Z,1276.00
2019-01-29T10:25:17.547Z,1172.00
2019-01-29T10:26:17.550Z,1208.00
2019-01-29T10:27:17.750Z,1216.00
2019-01-29T10:28:17.529Z,1196.00
2019-01-29T10:29:17.538Z,1260.00
2019-01-29T10:30:17.532Z,1308.00
2019-01-29T10:31:17.513Z,1328.00
2019-01-29T10:32:17.723Z,1264.00
2019-01-29T10:33:17.501Z,1360.00
2019-01-29T10:34:17.498Z,1276.00
2019-01-29T10:35:17.510Z,1260.00
2019-01-29T10:36:17.697Z,1168.00
2019-01-29T10:37:17.493Z,1204.00
2019-01-29T10:38:17.474Z,1228.00
2019-01-29T10:39:17.480Z,1188.00
2019-01-29T10:40:17.464Z,1148.00
2019-01-29T10:41:17.456Z,1024.00
2019-01-29T10:42:17.484Z,852.00
2019-01-29T10:43:17.673Z,784.00
2019-01-29T10:44:17.471Z,852.00
2019-01-29T10:45:17.436Z,844.00
2019-01-29T10:46:17.442Z,792.00
2019-01-29T10:47:17.426Z,776.00
2019-01-29T10:48:17.452Z,772.00
2019-01-29T10:49:17.413Z,768.00
2019-01-29T10:50:17.613Z,760.00
2019-01-29T10:51:17.414Z,756.00
2019-01-29T10:52:17.398Z,744.00
2019-01-29T10:53:17.396Z,708.00
2019-01-29T10:54:17.389Z,700.00
2019-01-29T10:55:17.439Z,712.00
2019-01-29T10:56:17.401Z,692.00
2019-01-29T10:57:17.373Z,764.00
2019-01-29T10:58:17.567Z,788.00
2019-01-29T10:59:17.361Z,824.00
2019-01-29T11:00:17.365Z,844.00
2019-01-29T11:01:17.568Z,888.00
2019-01-29T11:02:17.345Z,896.00
2019-01-29T11:03:17.351Z,892.00
2019-01-29T11:04:17.331Z,908.00
2019-01-29T11:05:17.536Z,920.00
2019-01-29T11:06:17.322Z,916.00
2019-01-29T11:07:17.332Z,912.00
2019-01-29T11:08:17.523Z,924.00
2019-01-29T11:09:24.988Z,940.00
2019-01-29T11:10:17.298Z,944.00
2019-01-29T11:11:17.292Z,956.00
2019-01-29T11:12:17.289Z,960.00
2019-01-29T11:13:17.280Z,972.00
2019-01-29T11:14:17.496Z,996.00
2019-01-29T11:15:17.281Z,1024.00
2019-01-29T11:16:17.265Z,1072.00
2019-01-29T11:17:17.293Z,1048.00
2019-01-29T11:18:17.468Z,1016.00
2019-01-29T11:19:17.449Z,1032.00
2019-01-29T11:20:17.245Z,1028.00
2019-01-29T11:21:17.441Z,1044.00
2019-01-29T11:22:17.231Z,1052.00
2019-01-29T11:23:17.246Z,1032.00
2019-01-29T11:24:17.222Z,1060.00
2019-01-29T11:25:17.417Z,1088.00
2019-01-29T11:26:17.209Z,1040.00
2019-01-29T11:27:17.407Z,1060.00
2019-01-29T11:28:17.404Z,1100.00
2019-01-29T11:29:17.206Z,1112.00
2019-01-29T11:30:17.394Z,1124.00
2019-01-29T11:31:17.384Z,1060.00
2019-01-29T11:32:17.176Z,1044.00
2019-01-29T11:33:17.175Z,1108.00
2019-01-29T11:34:17.170Z,940.00
2019-01-29T11:35:17.171Z,884.00
2019-01-29T11:36:17.154Z,848.00
2019-01-29T11:37:17.147Z,860.00
2019-01-29T11:38:17.156Z,848.00
2019-01-29T11:39:17.147Z,852.00
2019-01-29T11:40:17.354Z,900.00
2019-01-29T11:41:17.148Z,1036.00
2019-01-29T11:42:17.142Z,996.00
2019-01-29T11:43:17.159Z,872.00
2019-01-29T11:44:17.120Z,832.00
2019-01-29T11:45:17.330Z,1012.00
2019-01-29T11:46:17.101Z,1080.00
2019-01-29T11:47:17.105Z,1156.00
2019-01-29T11:48:17.110Z,1012.00
2019-01-29T11:49:17.093Z,924.00
2019-01-29T11:50:17.092Z,832.00
2019-01-29T11:51:17.274Z,836.00
2019-01-29T11:52:17.081Z,796.00
2019-01-29T11:53:17.067Z,860.00
2019-01-29T11:54:17.059Z,824.00
2019-01-29T11:55:17.253Z,828.00
2019-01-29T11:56:17.249Z,792.00
2019-01-29T11:57:17.049Z,788.00
2019-01-29T11:58:17.239Z,844.00
2019-01-29T11:59:17.040Z,800.00
2019-01-29T12:00:17.244Z,788.00
2019-01-29T12:01:17.019Z,772.00
2019-01-29T12:02:17.022Z,800.00
2019-01-29T12:03:17.010Z,852.00
2019-01-29T12:04:17.000Z,848.00
2019-01-29T12:05:17.002Z,776.00
2019-01-29T12:06:16.996Z,752.00
2019-01-29T12:07:16.986Z,748.00
2019-01-29T12:08:17.190Z,776.00
2019-01-29T12:09:16.976Z,816.00
2019-01-29T12:10:17.175Z,792.00
2019-01-29T12:11:17.180Z,796.00
2019-01-29T12:12:16.984Z,872.00
2019-01-29T12:13:17.182Z,856.00
2019-01-29T12:14:16.947Z,768.00
2019-01-29T12:15:16.951Z,772.00
2019-01-29T12:16:16.946Z,824.00
2019-01-29T12:17:17.148Z,848.00
2019-01-29T12:18:16.941Z,828.00
2019-01-29T12:19:16.926Z,776.00
2019-01-29T12:20:16.917Z,712.00
2019-01-29T12:21:16.922Z,728.00
2019-01-29T12:22:16.907Z,744.00
2019-01-29T12:23:16.915Z,756.00
2019-01-29T12:24:16.895Z,740.00
2019-01-29T12:25:16.888Z,748.00
2019-01-29T12:26:16.901Z,752.00
2019-01-29T12:27:16.890Z,796.00
2019-01-29T12:28:16.873Z,740.00
2019-01-29T12:29:17.071Z,740.00
2019-01-29T12:30:16.892Z,812.00
2019-01-29T12:31:16.870Z,764.00
2019-01-29T12:32:17.052Z,664.00
2019-01-29T12:33:16.845Z,660.00
2019-01-29T12:34:16.854Z,684.00
2019-01-29T12:35:16.845Z,716.00
2019-01-29T12:36:16.845Z,696.00
2019-01-29T12:37:16.827Z,672.00
2019-01-29T12:38:17.027Z,680.00
2019-01-29T12:39:16.816Z,652.00
2019-01-29T12:40:16.817Z,608.00
2019-01-29T12:41:17.015Z,636.00
2019-01-29T12:42:16.801Z,684.00
2019-01-29T12:43:16.791Z,756.00
2019-01-29T12:44:16.784Z,848.00
2019-01-29T12:45:16.780Z,800.00
2019-01-29T12:46:16.799Z,800.00
2019-01-29T12:47:16.772Z,804.00
2019-01-29T12:48:16.763Z,912.00
2019-01-29T12:49:16.769Z,892.00
2019-01-29T12:50:16.770Z,808.00
2019-01-29T12:51:16.764Z,800.00
2019-01-29T12:52:16.947Z,884.00
2019-01-29T12:53:16.951Z,860.00
2019-01-29T12:54:16.731Z,816.00
2019-01-29T12:55:16.725Z,748.00
2019-01-29T12:56:21.547Z,740.00